East Hickory, Pennsylvania
Current Conditions -  °F | °C
As of 9:35 AM on Monday 26 Jan 2015 (Local Time) from KFKL Reporting Station
Overcast Overcast  
Wind Chill: -14°   Ceiling: 1600
Heat Index: -8°   Visibility: 1.2mi
Dew Point: -10°   Wind: 8mph
Humidity: 86%   Direction: 50°NE
Pressure: 29.75"   Gusts: NA
Location:  41.58°N, 79.4°W
Report Text: KFKL 261435Z AUTO 05007KT 1 1/4SM BKN016 OVC029 M08/M10 A2975 RMK AO1
Loading
Personal Weather Stations






























Interactive Weather Map New forecast layout! Learn more

10-Day Weather Forecast

Advertisements
Track Severe Weather on mobile